Time;durP1;ratioP1;P1;durP2;ratioP2;P2;SDS_P1;SDS_P2;PMS_P1;PMS_P2;Temp;Humidity;BMP_temperature;BMP_pressure;BME280_temperature;BME280_humidity;BME280_pressure;Samples;Min_cycle;Max_cycle;Signal;HPM_P1;HPM_P2
2023/04/25 00:00:46;;;;;;;10.35;5.90;;;25.50;99.90;;;;;;5024102;22;20527;-50
2023/04/25 00:03:11;;;;;;;10.73;6.85;;;25.50;99.90;;;;;;5011572;28;20037;-49
2023/04/25 00:05:38;;;;;;;10.52;6.75;;;25.50;99.90;;;;;;4998832;28;20033;-48
2023/04/25 00:08:05;;;;;;;8.25;6.15;;;25.50;99.90;;;;;;5011953;28;20026;-49
2023/04/25 00:10:31;;;;;;;9.93;5.30;;;25.50;99.90;;;;;;4998648;28;20022;-48
2023/04/25 00:12:57;;;;;;;7.78;5.10;;;25.40;99.90;;;;;;4968648;28;20036;-49
2023/04/25 00:15:24;;;;;;;9.77;6.13;;;25.40;99.90;;;;;;5014668;28;20393;-49
2023/04/25 00:17:52;;;;;;;7.90;5.13;;;25.40;99.90;;;;;;5015619;28;20049;-50
2023/04/25 00:20:18;;;;;;;6.32;4.70;;;25.40;99.90;;;;;;5015165;28;20018;-49
2023/04/25 00:22:44;;;;;;;8.05;5.55;;;25.40;99.90;;;;;;4993783;28;20034;-46
2023/04/25 00:25:09;;;;;;;6.90;5.53;;;25.40;99.90;;;;;;4994015;28;20451;-47
2023/04/25 00:27:35;;;;;;;8.85;5.13;;;25.40;99.90;;;;;;4995481;28;20104;-46
2023/04/25 00:30:01;;;;;;;7.68;5.30;;;25.40;99.90;;;;;;4978612;28;20041;-49
2023/04/25 00:32:27;;;;;;;8.18;5.10;;;25.40;99.90;;;;;;4993097;28;20481;-47
2023/04/25 00:34:53;;;;;;;6.93;5.20;;;25.40;99.90;;;;;;4995780;28;20022;-48
2023/04/25 00:37:19;;;;;;;8.13;5.55;;;25.40;99.90;;;;;;4995820;28;20097;-47
2023/04/25 00:39:45;;;;;;;8.35;5.28;;;25.40;99.90;;;;;;4992277;28;20029;-46
2023/04/25 00:42:11;;;;;;;7.03;5.15;;;25.40;99.90;;;;;;4974934;28;20396;-46
2023/04/25 00:44:37;;;;;;;8.05;5.25;;;25.40;99.90;;;;;;4957798;28;20118;-47
2023/04/25 00:47:04;;;;;;;7.43;5.47;;;25.40;99.90;;;;;;4976240;28;20022;-46
2023/04/25 00:49:30;;;;;;;9.10;5.25;;;25.40;99.90;;;;;;4983127;28;20053;-46
2023/04/25 00:51:56;;;;;;;6.80;4.85;;;25.30;99.90;;;;;;4990767;28;20102;-47
2023/04/25 00:54:22;;;;;;;7.55;5.28;;;25.30;99.90;;;;;;4979709;28;20488;-47
2023/04/25 00:56:48;;;;;;;6.90;5.07;;;25.30;99.90;;;;;;4958813;28;20049;-47
2023/04/25 01:01:45;;;;;;;8.48;5.63;;;25.30;99.90;;;;;;5012613;28;20108;-60
2023/04/25 01:04:11;;;;;;;6.70;5.40;;;25.30;99.90;;;;;;5012978;28;20442;-60
2023/04/25 01:06:37;;;;;;;7.15;5.05;;;25.30;99.90;;;;;;5013826;28;20021;-60
2023/04/25 01:09:04;;;;;;;6.60;5.00;;;25.30;99.90;;;;;;5012081;28;20157;-60
2023/04/25 01:11:30;;;;;;;6.95;5.32;;;25.30;99.90;;;;;;5014918;28;20018;-60
2023/04/25 01:13:56;;;;;;;6.90;5.40;;;25.30;99.90;;;;;;5014709;28;20030;-61
2023/04/25 01:16:23;;;;;;;7.07;5.28;;;25.30;99.90;;;;;;5013308;28;20029;-61
2023/04/25 01:18:51;;;;;;;7.03;5.38;;;25.30;99.90;;;;;;5013795;28;20026;-62
2023/04/25 01:21:17;;;;;;;9.15;5.55;;;25.30;99.90;;;;;;5014346;28;20022;-62
2023/04/25 01:23:43;;;;;;;7.57;5.18;;;25.20;99.90;;;;;;5014508;28;20121;-62
2023/04/25 01:26:10;;;;;;;8.05;5.30;;;25.20;99.90;;;;;;5013441;28;20472;-61
2023/04/25 01:28:36;;;;;;;5.82;4.65;;;25.20;99.90;;;;;;5014617;28;20071;-61
2023/04/25 01:31:03;;;;;;;6.13;4.60;;;25.20;99.90;;;;;;5014280;28;20030;-62
2023/04/25 01:33:29;;;;;;;7.47;5.47;;;25.20;99.90;;;;;;5014294;28;20288;-62
2023/04/25 01:35:55;;;;;;;5.73;4.77;;;25.20;99.90;;;;;;5014481;28;20018;-61
2023/04/25 01:38:21;;;;;;;6.72;4.72;;;25.20;99.90;;;;;;5014376;28;20503;-61
2023/04/25 01:40:50;;;;;;;8.35;5.20;;;25.10;99.90;;;;;;5014195;28;20018;-63
2023/04/25 01:43:16;;;;;;;7.80;5.13;;;25.20;99.90;;;;;;5013907;28;20498;-61
2023/04/25 01:45:43;;;;;;;7.03;5.25;;;25.20;99.90;;;;;;5013309;28;20026;-61
2023/04/25 01:48:11;;;;;;;6.03;4.68;;;25.20;99.90;;;;;;5008758;28;20504;-61
2023/04/25 01:50:38;;;;;;;7.80;4.90;;;25.10;99.90;;;;;;5014622;28;20109;-61
2023/04/25 01:53:05;;;;;;;6.82;4.93;;;25.10;99.90;;;;;;5013918;28;20072;-60
2023/04/25 01:55:30;;;;;;;11.13;4.88;;;25.10;99.90;;;;;;5013812;28;20033;-60
2023/04/25 01:57:56;;;;;;;6.60;5.13;;;25.10;99.90;;;;;;5013827;28;20084;-63
2023/04/25 02:00:23;;;;;;;7.22;4.95;;;25.10;99.90;;;;;;5014210;28;20045;-63
2023/04/25 02:02:50;;;;;;;7.40;5.60;;;25.10;99.90;;;;;;5013588;28;20400;-62
2023/04/25 02:05:16;;;;;;;9.88;5.63;;;25.10;99.90;;;;;;5013728;28;20072;-62
2023/04/25 02:07:42;;;;;;;6.82;5.07;;;25.10;99.90;;;;;;5013609;28;20084;-62
2023/04/25 02:10:09;;;;;;;6.97;4.95;;;25.10;99.90;;;;;;5013903;28;20196;-64
2023/04/25 02:12:36;;;;;;;6.55;4.90;;;25.10;99.90;;;;;;5013699;28;20550;-65
2023/04/25 02:15:02;;;;;;;9.55;5.00;;;25.10;99.90;;;;;;5012350;28;20087;-64
2023/04/25 02:17:27;;;;;;;7.43;4.82;;;25.10;99.90;;;;;;5013594;28;20022;-61
2023/04/25 02:19:53;;;;;;;6.97;4.53;;;25.10;99.90;;;;;;5013385;28;20022;-61
2023/04/25 02:22:19;;;;;;;6.80;4.18;;;25.10;99.90;;;;;;5013351;28;20054;-62
2023/04/25 02:24:46;;;;;;;7.50;4.82;;;25.10;99.90;;;;;;5013490;28;20026;-61
2023/04/25 02:27:11;;;;;;;8.30;4.47;;;25.10;99.90;;;;;;5013441;28;20030;-61
2023/04/25 02:29:37;;;;;;;7.03;5.20;;;25.10;99.90;;;;;;5012208;28;20036;-60
2023/04/25 02:32:03;;;;;;;12.18;5.57;;;25.10;99.90;;;;;;5013083;28;20110;-60
2023/04/25 02:34:29;;;;;;;6.90;4.63;;;25.00;99.90;;;;;;5013087;28;20057;-60
2023/04/25 02:36:56;;;;;;;7.60;4.60;;;25.00;99.90;;;;;;5012987;28;20021;-62
2023/04/25 02:39:22;;;;;;;6.45;5.00;;;25.00;99.90;;;;;;5012973;28;20025;-61
2023/04/25 02:41:47;;;;;;;5.88;5.00;;;25.00;99.90;;;;;;5012993;28;20106;-63
2023/04/25 02:44:13;;;;;;;7.30;4.78;;;25.00;99.90;;;;;;5012853;28;20113;-61
2023/04/25 02:46:39;;;;;;;7.68;4.60;;;25.00;99.90;;;;;;5011753;28;20143;-61
2023/04/25 02:49:05;;;;;;;7.45;5.10;;;25.00;99.90;;;;;;5028870;28;20030;-63
2023/04/25 02:51:31;;;;;;;6.57;4.43;;;25.00;99.90;;;;;;5032595;28;20475;-63
2023/04/25 02:53:57;;;;;;;7.60;5.03;;;25.00;99.90;;;;;;5030974;28;20044;-62
2023/04/25 02:56:23;;;;;;;5.32;4.63;;;25.00;99.90;;;;;;5032333;28;20029;-62
2023/04/25 02:58:48;;;;;;;6.03;5.03;;;25.00;99.90;;;;;;5032317;28;20029;-61
2023/04/25 03:01:14;;;;;;;8.52;5.07;;;25.00;99.90;;;;;;5032764;28;20557;-61
2023/04/25 03:03:40;;;;;;;7.95;4.72;;;25.00;99.90;;;;;;5032525;28;20029;-61
2023/04/25 03:06:06;;;;;;;7.55;5.30;;;25.00;99.90;;;;;;5032315;28;20017;-62
2023/04/25 03:08:34;;;;;;;6.65;4.97;;;25.00;99.90;;;;;;5032249;28;20104;-62
2023/04/25 03:11:00;;;;;;;6.75;5.00;;;25.00;99.90;;;;;;5032263;28;20026;-63
2023/04/25 03:13:27;;;;;;;6.95;4.95;;;25.00;99.90;;;;;;5032298;28;20025;-62
2023/04/25 03:15:53;;;;;;;8.83;5.40;;;25.00;99.90;;;;;;5032276;28;20108;-62
2023/04/25 03:18:18;;;;;;;7.03;4.70;;;25.00;99.90;;;;;;4997327;28;20618;-62
2023/04/25 03:20:44;;;;;;;6.25;4.20;;;25.00;99.90;;;;;;5012606;28;20357;-62
2023/04/25 03:23:10;;;;;;;5.97;4.43;;;25.00;99.90;;;;;;5012375;28;20018;-62
2023/04/25 03:25:36;;;;;;;6.65;4.80;;;24.90;99.90;;;;;;5010777;28;20026;-62
2023/04/25 03:28:01;;;;;;;7.30;5.32;;;24.90;99.90;;;;;;5010894;28;20021;-61
2023/04/25 03:30:27;;;;;;;9.38;4.80;;;24.90;99.90;;;;;;5012122;28;20113;-61
2023/04/25 03:32:53;;;;;;;8.43;5.03;;;24.90;99.90;;;;;;5012190;28;20022;-63
2023/04/25 03:35:19;;;;;;;7.47;5.35;;;24.90;99.90;;;;;;5012132;28;20022;-61
2023/04/25 03:37:45;;;;;;;7.53;5.00;;;24.90;99.90;;;;;;5012136;28;20022;-62
2023/04/25 03:40:11;;;;;;;8.27;4.90;;;24.90;99.90;;;;;;5012158;28;20049;-60
2023/04/25 03:42:37;;;;;;;5.47;4.47;;;24.90;99.90;;;;;;5012073;28;20483;-60
2023/04/25 03:45:03;;;;;;;7.50;5.38;;;24.90;99.90;;;;;;5010607;28;20030;-61
2023/04/25 03:47:29;;;;;;;6.40;4.93;;;24.80;99.90;;;;;;5011886;28;20346;-60
2023/04/25 03:49:55;;;;;;;7.55;5.30;;;24.90;99.90;;;;;;5014091;28;20022;-60
2023/04/25 03:52:21;;;;;;;7.80;4.88;;;24.80;99.90;;;;;;5015856;28;20022;-60
2023/04/25 03:54:46;;;;;;;7.80;5.15;;;24.80;99.90;;;;;;5016013;28;20022;-61
2023/04/25 03:57:12;;;;;;;7.50;4.97;;;24.80;99.90;;;;;;5016050;28;20075;-62
2023/04/25 03:59:38;;;;;;;6.63;5.25;;;24.80;99.90;;;;;;5032761;22;20250;-51
2023/04/25 04:02:04;;;;;;;6.50;5.05;;;24.80;99.90;;;;;;5029727;28;20510;-51
2023/04/25 04:04:30;;;;;;;10.00;6.57;;;24.80;99.90;;;;;;5035521;28;20448;-52
2023/04/25 04:06:56;;;;;;;7.10;5.50;;;24.80;99.90;;;;;;5035328;28;20025;-52
2023/04/25 04:09:21;;;;;;;8.80;5.55;;;24.80;99.90;;;;;;5021954;28;20083;-51
2023/04/25 04:11:47;;;;;;;7.78;5.22;;;24.80;99.90;;;;;;5035565;28;20024;-53
2023/04/25 04:14:13;;;;;;;8.30;5.95;;;24.80;99.90;;;;;;5022276;28;20124;-51
2023/04/25 04:16:39;;;;;;;9.50;6.07;;;24.80;99.90;;;;;;5033996;28;20442;-52
2023/04/25 04:19:05;;;;;;;6.82;5.18;;;24.80;99.90;;;;;;5031366;28;20096;-51
2023/04/25 04:21:31;;;;;;;7.10;5.18;;;24.80;99.90;;;;;;5025500;28;20021;-52
2023/04/25 04:23:59;;;;;;;8.52;6.15;;;24.80;99.90;;;;;;5034760;28;20083;-51
2023/04/25 04:26:25;;;;;;;9.45;6.13;;;24.80;99.90;;;;;;5035011;28;20435;-53
2023/04/25 04:28:54;;;;;;;8.90;6.10;;;24.80;99.90;;;;;;5035157;28;20021;-52
2023/04/25 04:31:21;;;;;;;7.38;5.80;;;24.80;99.90;;;;;;5021589;28;20018;-52
2023/04/25 04:33:47;;;;;;;8.35;5.70;;;24.70;99.90;;;;;;5035191;28;20163;-51
2023/04/25 04:36:13;;;;;;;8.15;6.38;;;24.70;99.90;;;;;;5033142;28;20030;-50
2023/04/25 04:38:40;;;;;;;8.13;5.45;;;24.70;99.90;;;;;;5023035;28;20032;-50
2023/04/25 04:41:06;;;;;;;7.35;5.28;;;24.70;99.90;;;;;;5034383;28;20013;-50
2023/04/25 04:43:33;;;;;;;7.05;5.35;;;24.70;99.90;;;;;;5026757;28;20080;-51
2023/04/25 04:46:03;;;;;;;9.27;5.55;;;24.70;99.90;;;;;;5028605;28;20035;-50
2023/04/25 04:48:32;;;;;;;9.88;5.55;;;24.70;99.90;;;;;;5034567;28;20025;-50
2023/04/25 04:50:58;;;;;;;8.68;4.95;;;24.70;99.90;;;;;;5021507;28;20022;-51
2023/04/25 04:53:24;;;;;;;7.85;5.22;;;24.70;99.90;;;;;;5034298;28;20009;-51
2023/04/25 04:55:50;;;;;;;6.05;4.72;;;24.70;99.90;;;;;;5034523;28;20090;-51
2023/04/25 04:58:16;;;;;;;6.82;4.57;;;24.70;99.90;;;;;;5021551;28;20192;-51
2023/04/25 05:00:41;;;;;;;7.15;5.15;;;24.70;99.90;;;;;;5033941;28;20056;-51
2023/04/25 05:03:07;;;;;;;7.57;5.03;;;24.70;99.90;;;;;;5025761;28;20034;-51
2023/04/25 05:05:33;;;;;;;7.93;4.95;;;24.70;99.90;;;;;;5016777;28;20021;-51
2023/04/25 05:07:59;;;;;;;6.43;4.55;;;24.70;99.90;;;;;;5033785;28;20018;-51
2023/04/25 05:10:25;;;;;;;12.13;4.60;;;24.70;99.90;;;;;;5025160;28;20052;-49
2023/04/25 05:12:51;;;;;;;8.70;4.50;;;24.70;99.90;;;;;;5030368;28;20033;-49
2023/04/25 05:15:17;;;;;;;8.38;4.68;;;24.70;99.90;;;;;;5034403;28;20029;-49
2023/04/25 05:17:43;;;;;;;7.85;4.57;;;24.70;99.90;;;;;;5020502;28;20021;-50
2023/04/25 05:20:09;;;;;;;5.80;4.45;;;24.70;99.90;;;;;;5032754;28;20028;-49
2023/04/25 05:22:35;;;;;;;8.02;5.10;;;24.70;99.90;;;;;;5033776;28;20025;-50
2023/04/25 05:25:01;;;;;;;7.03;4.60;;;24.70;99.90;;;;;;5033700;28;20029;-49
2023/04/25 05:27:27;;;;;;;5.57;3.90;;;24.60;99.90;;;;;;5033976;28;20025;-50
2023/04/25 05:29:52;;;;;;;10.68;5.25;;;24.70;99.90;;;;;;5029413;28;20049;-50
2023/04/25 05:32:18;;;;;;;7.30;4.47;;;24.60;99.90;;;;;;5025305;28;20383;-50
2023/04/25 05:34:44;;;;;;;8.15;4.93;;;24.60;99.90;;;;;;5033490;28;20026;-50
2023/04/25 05:37:10;;;;;;;7.47;4.63;;;24.60;99.90;;;;;;5024318;28;20076;-49
2023/04/25 05:39:35;;;;;;;8.80;4.20;;;24.60;99.90;;;;;;5029646;28;20405;-49
2023/04/25 05:42:01;;;;;;;6.80;4.55;;;24.60;99.90;;;;;;5033534;28;20026;-49
2023/04/25 05:44:27;;;;;;;6.57;4.82;;;24.60;99.90;;;;;;5033367;28;20025;-50
2023/04/25 05:46:53;;;;;;;5.80;4.35;;;24.60;99.90;;;;;;5031970;28;20103;-50
2023/04/25 05:49:19;;;;;;;10.52;5.03;;;24.60;99.90;;;;;;5032491;28;20080;-49
2023/04/25 05:51:45;;;;;;;6.72;4.28;;;24.60;99.90;;;;;;5007456;28;20033;-49
2023/04/25 05:54:10;;;;;;;6.72;4.53;;;24.60;99.90;;;;;;5033341;28;20048;-49
2023/04/25 05:56:36;;;;;;;6.78;4.80;;;24.60;99.90;;;;;;5033425;28;20388;-49
2023/04/25 05:59:02;;;;;;;5.97;3.97;;;24.60;99.90;;;;;;5033403;28;20363;-50
2023/04/25 06:01:28;;;;;;;9.30;4.85;;;24.60;99.90;;;;;;5031139;28;20041;-50
2023/04/25 06:03:54;;;;;;;7.40;4.47;;;24.60;99.90;;;;;;5021869;28;20052;-51
2023/04/25 06:06:20;;;;;;;5.40;4.00;;;24.60;99.90;;;;;;5030431;28;20041;-50
2023/04/25 06:08:45;;;;;;;5.97;4.20;;;24.60;99.90;;;;;;5032884;28;20105;-51
2023/04/25 06:11:11;;;;;;;7.53;4.93;;;24.50;99.90;;;;;;5019929;28;20026;-49
2023/04/25 06:13:37;;;;;;;6.28;4.28;;;24.60;99.90;;;;;;5031536;28;20021;-50
2023/04/25 06:16:03;;;;;;;5.05;3.47;;;24.60;99.90;;;;;;5032434;28;20024;-51
2023/04/25 06:18:29;;;;;;;5.40;3.60;;;24.60;99.90;;;;;;5020182;28;20021;-51
2023/04/25 06:20:55;;;;;;;9.32;4.78;;;24.50;99.90;;;;;;5032555;28;20076;-51
2023/04/25 06:23:20;;;;;;;6.22;4.05;;;24.50;99.90;;;;;;5027913;28;20029;-51
2023/04/25 06:25:46;;;;;;;6.78;3.88;;;24.50;99.90;;;;;;5024903;28;20475;-52
2023/04/25 06:28:12;;;;;;;5.97;4.40;;;24.50;99.90;;;;;;5032740;28;20028;-53
2023/04/25 06:30:38;;;;;;;6.07;3.78;;;24.50;99.90;;;;;;5032829;28;20027;-52
2023/04/25 06:33:03;;;;;;;6.97;4.20;;;24.50;99.90;;;;;;5032236;28;20499;-52
2023/04/25 06:35:29;;;;;;;7.43;4.10;;;24.50;99.90;;;;;;5032694;28;20049;-49
2023/04/25 06:37:55;;;;;;;8.25;3.80;;;24.50;99.90;;;;;;5019393;28;20045;-49
2023/04/25 06:40:21;;;;;;;6.78;3.95;;;24.50;99.90;;;;;;5032882;28;20025;-49
2023/04/25 06:42:46;;;;;;;5.35;3.60;;;24.50;99.90;;;;;;5031646;28;20025;-50
2023/04/25 06:45:12;;;;;;;5.68;3.50;;;24.50;99.90;;;;;;5020098;28;20033;-49
2023/04/25 06:47:38;;;;;;;5.50;3.92;;;24.50;99.90;;;;;;5030763;28;20112;-51
2023/04/25 06:50:05;;;;;;;6.43;4.53;;;24.50;99.90;;;;;;5026989;28;20345;-50
2023/04/25 06:52:31;;;;;;;5.97;3.83;;;24.50;99.90;;;;;;5025095;28;20026;-51
2023/04/25 06:54:57;;;;;;;5.93;3.75;;;24.50;99.90;;;;;;5032033;28;20035;-51
2023/04/25 06:57:23;;;;;;;7.35;3.92;;;24.60;99.90;;;;;;5021776;28;20469;-51
2023/04/25 06:59:49;;;;;;;4.75;3.55;;;24.50;99.90;;;;;;5029734;28;20462;-51
2023/04/25 07:02:15;;;;;;;6.47;3.80;;;24.50;99.90;;;;;;5032157;28;20129;-48
2023/04/25 07:04:40;;;;;;;6.97;4.38;;;24.60;99.90;;;;;;5031879;28;20043;-51
2023/04/25 07:07:06;;;;;;;7.03;3.88;;;24.50;99.90;;;;;;5032352;28;20365;-50
2023/04/25 07:09:33;;;;;;;7.55;4.53;;;24.60;99.90;;;;;;5018338;28;20017;-51
2023/04/25 07:12:01;;;;;;;5.45;3.35;;;24.60;99.90;;;;;;5032025;28;20018;-52
2023/04/25 07:14:27;;;;;;;;;;;24.60;99.90;;;;;;5032293;28;20056;-52
2023/04/25 07:16:53;;;;;;;8.30;4.40;;;24.60;99.90;;;;;;5018802;28;20315;-51
2023/04/25 07:19:18;;;;;;;8.27;4.18;;;24.60;99.90;;;;;;5032007;28;20038;-50
2023/04/25 07:21:44;;;;;;;5.65;4.18;;;24.60;99.90;;;;;;5031705;28;20029;-50
2023/04/25 07:24:10;;;;;;;6.38;4.15;;;24.60;99.90;;;;;;5030843;28;20084;-49
2023/04/25 07:26:36;;;;;;;5.97;4.35;;;24.60;99.90;;;;;;5031650;28;20036;-50
2023/04/25 07:29:01;;;;;;;6.00;4.20;;;24.60;99.90;;;;;;5031934;28;20361;-49
2023/04/25 07:31:27;;;;;;;6.97;4.47;;;24.60;99.90;;;;;;5031537;28;20018;-49
2023/04/25 07:33:53;;;;;;;8.68;3.92;;;24.60;99.90;;;;;;5031647;28;20452;-49
2023/04/25 07:36:19;;;;;;;7.93;4.15;;;24.60;99.90;;;;;;5028361;28;20033;-49
2023/04/25 07:38:45;;;;;;;7.60;4.53;;;24.70;99.90;;;;;;5021598;28;20018;-51
2023/04/25 07:41:11;;;;;;;5.93;4.18;;;24.70;99.90;;;;;;5031483;28;20021;-50
2023/04/25 07:43:36;;;;;;;6.25;4.10;;;24.70;99.90;;;;;;5023398;28;20030;-51
2023/04/25 07:46:02;;;;;;;5.72;4.32;;;24.70;99.90;;;;;;5026594;28;20087;-53
2023/04/25 07:48:28;;;;;;;7.88;5.10;;;24.70;99.90;;;;;;5031705;28;20025;-51
2023/04/25 07:50:54;;;;;;;6.43;4.38;;;24.70;99.90;;;;;;5027692;28;20022;-50
2023/04/25 07:53:19;;;;;;;4.78;3.50;;;24.70;99.90;;;;;;5028173;28;20033;-50
2023/04/25 07:55:45;;;;;;;6.32;4.30;;;24.70;99.90;;;;;;5015909;28;20041;-50
2023/04/25 07:58:11;;;;;;;8.18;4.45;;;24.70;99.90;;;;;;5031397;28;20025;-49
2023/04/25 08:00:37;;;;;;;7.68;4.68;;;24.70;99.90;;;;;;5031459;28;20045;-50
2023/04/25 08:03:03;;;;;;;5.03;3.72;;;24.70;99.90;;;;;;5004294;28;20021;-50
2023/04/25 08:05:29;;;;;;;8.20;4.22;;;24.70;99.90;;;;;;5031203;28;20341;-50
2023/04/25 08:07:56;;;;;;;7.57;4.35;;;24.70;99.90;;;;;;5031878;28;20013;-50
2023/04/25 08:10:23;;;;;;;5.80;4.55;;;24.70;99.90;;;;;;5018781;28;20073;-50
2023/04/25 08:12:49;;;;;;;6.45;4.30;;;24.70;99.90;;;;;;5026983;28;20029;-49
2023/04/25 08:15:14;;;;;;;10.32;4.65;;;24.70;99.90;;;;;;5031551;28;20052;-50
2023/04/25 08:17:41;;;;;;;9.57;4.85;;;24.70;99.90;;;;;;5029696;28;20467;-48
2023/04/25 08:20:07;;;;;;;6.68;4.45;;;24.70;99.90;;;;;;5011171;28;20399;-50
2023/04/25 08:22:33;;;;;;;6.82;4.57;;;24.70;99.90;;;;;;5010180;28;20037;-49
2023/04/25 08:24:59;;;;;;;6.37;4.50;;;24.80;99.90;;;;;;5014566;28;20045;-49
2023/04/25 08:27:25;;;;;;;6.45;4.78;;;24.70;99.90;;;;;;5031589;28;20053;-50
2023/04/25 08:29:51;;;;;;;7.55;4.70;;;24.80;99.90;;;;;;5031378;28;20390;-49
2023/04/25 08:32:17;;;;;;;8.80;4.43;;;24.80;99.90;;;;;;5023660;28;20029;-48
2023/04/25 08:34:43;;;;;;;10.80;4.50;;;24.80;99.90;;;;;;5012028;28;20399;-50
2023/04/25 08:37:10;;;;;;;9.60;4.45;;;24.80;99.90;;;;;;5015017;28;20053;-47
2023/04/25 08:39:38;;;;;;;7.60;4.50;;;24.80;99.90;;;;;;5013716;28;20021;-49
2023/04/25 08:42:09;;;;;;;8.68;4.43;;;24.80;99.90;;;;;;5015006;28;20523;-50
2023/04/25 08:44:36;;;;;;;13.60;4.95;;;24.80;99.90;;;;;;5014705;28;20480;-51
2023/04/25 08:47:05;;;;;;;5.60;4.13;;;24.80;99.90;;;;;;5014860;28;20030;-49
2023/04/25 08:49:34;;;;;;;5.50;3.70;;;24.80;99.90;;;;;;5014822;28;20030;-49
2023/04/25 08:52:05;;;;;;;5.55;3.63;;;24.80;99.90;;;;;;5014713;28;20029;-49
2023/04/25 08:54:32;;;;;;;7.68;3.78;;;24.80;99.90;;;;;;5014952;28;20376;-49
2023/04/25 08:57:04;;;;;;;8.93;3.50;;;24.80;99.90;;;;;;5014923;28;20049;-49
2023/04/25 08:59:31;;;;;;;8.68;4.05;;;24.90;99.90;;;;;;5014592;28;20105;-48
2023/04/25 09:01:57;;;;;;;7.38;3.75;;;24.90;99.90;;;;;;5016962;28;20061;-49
2023/04/25 09:04:23;;;;;;;7.30;4.20;;;24.90;99.90;;;;;;5034083;28;20037;-49
2023/04/25 09:06:49;;;;;;;5.00;3.53;;;24.90;99.90;;;;;;5033867;28;20028;-49
2023/04/25 09:09:15;;;;;;;8.07;4.75;;;24.90;99.90;;;;;;5034051;28;20030;-48
2023/04/25 09:11:41;;;;;;;7.35;3.72;;;24.90;99.90;;;;;;5031347;28;20029;-49
2023/04/25 09:14:20;;;;;;;7.80;3.55;;;24.90;99.90;;;;;;5014468;28;20030;-47
2023/04/25 09:17:01;;;;;;;8.13;3.58;;;24.90;99.90;;;;;;5010722;28;20037;-48
2023/04/25 09:19:31;;;;;;;9.50;3.40;;;25.00;99.90;;;;;;5011880;28;20014;-47
2023/04/25 09:22:00;;;;;;;9.45;3.15;;;24.90;99.90;;;;;;5014679;28;20483;-47
2023/04/25 09:24:43;;;;;;;10.15;2.83;;;25.00;99.90;;;;;;5012557;28;20133;-47
2023/04/25 09:27:11;;;;;;;8.35;3.53;;;24.90;99.90;;;;;;5012853;28;20030;-48
2023/04/25 09:29:39;;;;;;;7.05;3.00;;;25.00;99.90;;;;;;5012468;28;20022;-47
2023/04/25 09:32:22;;;;;;;7.82;2.65;;;25.00;99.90;;;;;;5013162;28;20101;-47
2023/04/25 09:34:50;;;;;;;8.20;2.72;;;24.90;99.90;;;;;;5012332;28;20080;-47
2023/04/25 09:37:29;;;;;;;4.90;2.65;;;25.00;99.90;;;;;;5010073;28;20033;-47
2023/04/25 09:39:58;;;;;;;8.32;3.08;;;24.90;99.90;;;;;;5012980;28;20105;-47
2023/04/25 09:42:25;;;;;;;6.43;2.72;;;24.90;99.90;;;;;;5013039;28;20387;-47
2023/04/25 09:44:55;;;;;;;7.10;3.05;;;25.00;99.90;;;;;;5015225;28;20125;-47
2023/04/25 09:47:23;;;;;;;8.75;2.58;;;25.00;99.90;;;;;;5011999;28;20105;-47
2023/04/25 09:49:50;;;;;;;9.85;2.28;;;25.00;99.90;;;;;;5012162;28;20018;-47
2023/04/25 09:52:18;;;;;;;7.78;3.38;;;25.00;99.90;;;;;;5011381;28;20029;-48
2023/04/25 09:54:45;;;;;;;11.75;3.90;;;25.00;99.90;;;;;;5011028;28;20050;-48
2023/04/25 09:57:12;;;;;;;13.65;4.30;;;24.90;99.90;;;;;;5011472;28;20026;-47
2023/04/25 10:00:08;;;;;;;8.43;3.23;;;25.00;99.90;;;;;;5010923;28;20026;-48
2023/04/25 10:02:35;;;;;;;7.13;3.58;;;24.90;99.90;;;;;;5010347;28;20032;-48
2023/04/25 10:05:05;;;;;;;12.10;3.27;;;24.90;99.90;;;;;;5012357;28;20076;-50
2023/04/25 10:07:33;;;;;;;8.75;2.55;;;25.00;99.90;;;;;;5013186;28;20407;-48
2023/04/25 10:10:04;;;;;;;5.47;2.08;;;25.00;99.90;;;;;;5023442;28;20026;-48
2023/04/25 10:12:33;;;;;;;5.63;2.67;;;24.90;99.90;;;;;;5014333;28;20116;-47
2023/04/25 10:15:00;;;;;;;7.35;2.40;;;24.90;99.90;;;;;;5012192;28;20105;-47
2023/04/25 10:17:29;;;;;;;6.22;3.08;;;24.90;99.90;;;;;;5010772;28;20028;-48
2023/04/25 10:19:56;;;;;;;8.65;2.67;;;24.90;99.90;;;;;;5010689;28;20030;-47
2023/04/25 10:22:41;;;;;;;7.72;2.53;;;24.90;99.90;;;;;;5011809;28;20472;-47
2023/04/25 10:25:08;;;;;;;4.75;1.85;;;24.90;99.90;;;;;;5010642;28;20034;-47
2023/04/25 10:27:34;;;;;;;5.20;2.13;;;24.90;99.90;;;;;;5011401;28;20022;-47
2023/04/25 10:30:02;;;;;;;5.03;2.42;;;24.90;99.90;;;;;;5015200;28;20029;-47
2023/04/25 10:32:27;;;;;;;;;;;24.90;99.90;;;;;;5011514;28;20022;-53
2023/04/25 10:34:54;;;;;;;4.95;2.78;;;24.90;99.90;;;;;;5012680;28;20330;-46
2023/04/25 10:37:20;;;;;;;6.60;2.70;;;24.90;99.90;;;;;;5012737;28;20650;-48
2023/04/25 10:39:46;;;;;;;5.90;2.65;;;24.90;99.90;;;;;;5012677;28;20120;-48
2023/04/25 10:42:12;;;;;;;5.60;2.63;;;24.90;99.90;;;;;;5012832;28;20036;-47
2023/04/25 10:44:40;;;;;;;4.80;2.42;;;24.90;99.90;;;;;;5008582;28;20034;-47
2023/04/25 10:47:09;;;;;;;7.63;2.28;;;24.90;99.90;;;;;;5011091;28;20476;-48
2023/04/25 10:49:37;;;;;;;6.18;2.03;;;24.90;99.90;;;;;;5012308;28;20204;-48
2023/04/25 10:52:18;;;;;;;7.38;2.67;;;24.90;99.90;;;;;;5013048;28;20460;-47
2023/04/25 10:54:48;;;;;;;8.05;2.38;;;24.90;99.90;;;;;;5008606;28;20483;-48
2023/04/25 10:57:28;;;;;;;5.75;1.90;;;24.90;99.90;;;;;;5010739;28;20160;-47
2023/04/25 10:59:54;;;;;;;6.32;2.55;;;25.00;99.90;;;;;;5013186;28;20045;-48
2023/04/25 11:02:20;;;;;;;6.93;2.42;;;24.90;99.90;;;;;;5010184;28;20014;-48
2023/04/25 11:04:46;;;;;;;5.35;2.35;;;24.90;99.90;;;;;;5011477;28;20029;-48
2023/04/25 11:07:41;;;;;;;5.53;1.60;;;24.90;99.90;;;;;;5011730;28;20021;-47
2023/04/25 11:10:07;;;;;;;5.40;1.83;;;24.90;99.90;;;;;;5010213;28;20041;-48
2023/04/25 11:12:33;;;;;;;5.32;2.40;;;24.90;99.90;;;;;;5008690;28;20014;-49
2023/04/25 11:15:01;;;;;;;12.45;2.60;;;24.90;99.90;;;;;;5010052;28;20048;-49
2023/04/25 11:17:26;;;;;;;;;;;24.90;99.90;;;;;;5010956;28;20104;-49
2023/04/25 11:19:53;;;;;;;6.55;3.00;;;24.90;99.90;;;;;;5012342;28;20028;-52
2023/04/25 11:22:21;;;;;;;4.55;2.95;;;25.00;99.90;;;;;;5009070;28;20022;-52
2023/04/25 11:24:47;;;;;;;4.57;3.05;;;25.00;99.90;;;;;;5010018;28;20030;-50
2023/04/25 11:27:13;;;;;;;7.85;2.95;;;24.90;99.90;;;;;;5015476;28;20017;-48
2023/04/25 11:29:40;;;;;;;5.60;3.00;;;25.00;99.90;;;;;;5024455;28;20693;-49
2023/04/25 11:32:06;;;;;;;12.93;2.75;;;25.00;99.90;;;;;;5023851;28;20018;-48
2023/04/25 11:34:33;;;;;;;9.60;4.20;;;25.00;99.90;;;;;;5030686;28;20068;-48
2023/04/25 11:37:03;;;;;;;10.25;3.65;;;25.00;99.90;;;;;;5021202;28;20025;-48
2023/04/25 11:39:30;;;;;;;10.38;3.97;;;25.00;99.90;;;;;;5030229;28;20025;-47
2023/04/25 11:41:56;;;;;;;5.00;2.80;;;25.00;99.90;;;;;;5030591;28;20369;-48
2023/04/25 11:44:22;;;;;;;6.55;3.22;;;25.10;99.90;;;;;;5018254;28;20087;-48
2023/04/25 11:46:48;;;;;;;7.13;2.75;;;25.10;99.90;;;;;;5031585;28;20033;-47
2023/04/25 11:49:15;;;;;;;5.07;2.92;;;25.10;99.90;;;;;;5028384;28;20109;-47
2023/04/25 11:51:44;;;;;;;6.07;3.15;;;25.10;99.90;;;;;;5020533;28;20476;-47
2023/04/25 11:54:11;;;;;;;4.63;3.03;;;25.10;99.90;;;;;;5030882;28;20034;-48
2023/04/25 11:56:37;;;;;;;10.93;3.03;;;25.10;99.90;;;;;;5031806;28;20021;-47
2023/04/25 11:59:05;;;;;;;5.72;2.58;;;25.20;99.90;;;;;;5031435;28;20045;-47
2023/04/25 12:01:33;;;;;;;5.75;2.90;;;25.20;99.90;;;;;;5030235;28;20041;-49
2023/04/25 12:04:10;;;;;;;;;;;25.20;99.90;;;;;;5032265;28;20037;-46
2023/04/25 12:06:40;;;;;;;5.18;2.78;;;25.20;99.90;;;;;;5031558;28;19905;-46
2023/04/25 12:09:08;;;;;;;4.25;2.53;;;25.20;99.90;;;;;;5028927;28;20036;-46
2023/04/25 12:11:42;;;;;;;5.85;2.65;;;25.30;99.90;;;;;;5024470;28;20096;-46
2023/04/25 12:14:08;;;;;;;4.25;1.98;;;25.30;99.90;;;;;;5035555;28;20013;-49
2023/04/25 12:16:41;;;;;;;5.13;2.58;;;25.30;99.90;;;;;;5027337;28;20084;-46
2023/04/25 12:19:07;;;;;;;3.22;2.22;;;25.30;99.90;;;;;;5031915;28;20215;-45
2023/04/25 12:21:34;;;;;;;2.83;2.10;;;25.30;99.90;;;;;;5035404;28;20057;-46
2023/04/25 12:24:25;;;;;;;6.50;2.72;;;25.30;99.90;;;;;;5021919;28;20464;-46
2023/04/25 12:26:59;;;;;;;3.55;1.98;;;25.40;99.90;;;;;;5034971;28;20025;-46
2023/04/25 12:29:27;;;;;;;4.60;2.42;;;25.40;99.90;;;;;;5034886;28;20044;-46
2023/04/25 12:31:55;;;;;;;4.18;2.90;;;25.40;99.90;;;;;;5034653;28;20410;-46
2023/04/25 12:34:21;;;;;;;2.97;2.50;;;25.40;99.90;;;;;;5035103;28;20029;-46
2023/04/25 12:36:48;;;;;;;3.20;2.80;;;25.40;99.90;;;;;;5033482;28;20483;-46
2023/04/25 12:39:19;;;;;;;4.07;2.65;;;25.40;99.90;;;;;;5034947;28;20360;-46
2023/04/25 12:41:46;;;;;;;7.93;2.83;;;25.40;99.90;;;;;;5021787;28;20034;-45
2023/04/25 12:44:12;;;;;;;3.60;2.28;;;25.40;99.90;;;;;;5033520;28;20065;-45
2023/04/25 12:46:39;;;;;;;4.00;2.50;;;25.40;99.90;;;;;;5032798;28;20030;-46
2023/04/25 12:49:07;;;;;;;6.10;2.60;;;25.50;99.90;;;;;;5022277;28;20025;-46